Fayetteville Regional Grannis Field
KFAY : now visible

Airfield :











YOU CAN JOIN US ON...

 
LOGIN :

Register | Disclaimer

   EN    FR    IT 

 









Legend :    VFR   Marginal VFR   IFR   Intensive IFR   Very Intensive IFR
Visi :
Ceiling :
>= 8 km
>= 3000ft
5 to 8 km
1000 to 3000 ft
1500m to 5 km
500 to 1000 ft
800 to 1500m
200 to 500 ft
< 800m
< 200 ft
Symbols :   Thunderstorms  Fog  Heavy snow  Heavy precipitations  Wind > 20 kt






- Airport Elevation : 189 ft
- IATA code : FAY


KFAY - Fayetteville Regional Grannis Field

CURRENT METAR :
  • 071453Z 00000KT 10SM FEW019 SCT027 30/23 A3023 RMK AO2 SLP232 T03000228 50005

EXPIRED METARs :
  • 071403Z VRB04KT 10SM SCT028 28/23 A3024 RMK AO2 T02830233
  • 071307Z 11004KT 10SM BKN027 27/23 A3024 RMK AO2 T02670233

TAF KFAY
Valid from the 07 at 13:00 until the 08 at 12:00 UTC


071317Z 0713/0812 14005KT P6SM SCT025 BKN250
TEMPO 0713/0715 BKN025
KZDC FIR / North America



MET'MAP, your aeronautical weather chart ! - Copyright ORBIFLY December 2007 - Disclaimer

ORBIFLY MET'MAP TEAM :

Programming & Development : Alexandra Zaïnal
Original concept : Baudouin d'Aumeries
Technical & hardware support : Manuel Goepfert
Assistance : Marc-Olivier Méhu




SOURCES & CREDITS :

   NOAA       Earth
Advisory